sensor_id;sensor_type;location;lat;lon;timestamp;P1;durP1;ratioP1;P2;durP2;ratioP2
5225;SDS011;2632;51.666;7.146;2022-10-16T00:01:24;2.40;;;0.80;;
5225;SDS011;2632;51.666;7.146;2022-10-16T00:03:53;1.23;;;0.87;;
5225;SDS011;2632;51.666;7.146;2022-10-16T00:06:20;1.83;;;1.20;;
5225;SDS011;2632;51.666;7.146;2022-10-16T00:08:48;1.10;;;0.90;;
5225;SDS011;2632;51.666;7.146;2022-10-16T00:11:17;3.60;;;1.37;;
5225;SDS011;2632;51.666;7.146;2022-10-16T00:13:45;1.00;;;1.00;;
5225;SDS011;2632;51.666;7.146;2022-10-16T00:16:13;1.20;;;1.10;;
5225;SDS011;2632;51.666;7.146;2022-10-16T00:18:40;1.50;;;1.13;;
5225;SDS011;2632;51.666;7.146;2022-10-16T00:21:09;3.70;;;1.40;;
5225;SDS011;2632;51.666;7.146;2022-10-16T00:23:38;1.70;;;1.23;;
5225;SDS011;2632;51.666;7.146;2022-10-16T00:26:06;2.20;;;1.27;;
5225;SDS011;2632;51.666;7.146;2022-10-16T00:28:35;1.87;;;1.10;;
5225;SDS011;2632;51.666;7.146;2022-10-16T00:31:03;1.13;;;0.97;;
5225;SDS011;2632;51.666;7.146;2022-10-16T00:33:35;1.13;;;0.90;;
5225;SDS011;2632;51.666;7.146;2022-10-16T00:36:03;1.10;;;0.90;;
5225;SDS011;2632;51.666;7.146;2022-10-16T00:38:30;1.10;;;1.00;;
5225;SDS011;2632;51.666;7.146;2022-10-16T00:40:57;1.13;;;0.90;;
5225;SDS011;2632;51.666;7.146;2022-10-16T00:43:40;1.37;;;1.00;;
5225;SDS011;2632;51.666;7.146;2022-10-16T00:46:15;2.37;;;1.53;;
5225;SDS011;2632;51.666;7.146;2022-10-16T00:48:42;1.70;;;0.90;;
5225;SDS011;2632;51.666;7.146;2022-10-16T00:51:14;1.60;;;1.00;;
5225;SDS011;2632;51.666;7.146;2022-10-16T00:53:42;0.80;;;0.80;;
5225;SDS011;2632;51.666;7.146;2022-10-16T00:56:10;2.73;;;1.43;;
5225;SDS011;2632;51.666;7.146;2022-10-16T00:58:37;1.83;;;1.10;;
5225;SDS011;2632;51.666;7.146;2022-10-16T01:01:03;2.30;;;0.90;;
5225;SDS011;2632;51.666;7.146;2022-10-16T01:03:32;1.10;;;0.90;;
5225;SDS011;2632;51.666;7.146;2022-10-16T01:08:36;2.73;;;1.00;;
5225;SDS011;2632;51.666;7.146;2022-10-16T01:11:22;0.80;;;0.80;;
5225;SDS011;2632;51.666;7.146;2022-10-16T01:16:58;1.10;;;1.00;;
5225;SDS011;2632;51.666;7.146;2022-10-16T01:20:16;1.00;;;0.90;;
5225;SDS011;2632;51.666;7.146;2022-10-16T01:22:33;2.33;;;1.00;;
5225;SDS011;2632;51.666;7.146;2022-10-16T01:25:07;0.93;;;0.90;;
5225;SDS011;2632;51.666;7.146;2022-10-16T01:27:40;1.27;;;0.97;;
5225;SDS011;2632;51.666;7.146;2022-10-16T01:30:10;1.10;;;1.00;;
5225;SDS011;2632;51.666;7.146;2022-10-16T01:32:53;1.03;;;0.93;;
5225;SDS011;2632;51.666;7.146;2022-10-16T01:35:32;1.60;;;1.00;;
5225;SDS011;2632;51.666;7.146;2022-10-16T01:38:04;1.53;;;1.00;;
5225;SDS011;2632;51.666;7.146;2022-10-16T01:40:36;1.00;;;0.90;;
5225;SDS011;2632;51.666;7.146;2022-10-16T01:43:07;2.13;;;1.33;;
5225;SDS011;2632;51.666;7.146;2022-10-16T01:45:38;0.90;;;0.80;;
5225;SDS011;2632;51.666;7.146;2022-10-16T01:48:07;1.20;;;1.10;;
5225;SDS011;2632;51.666;7.146;2022-10-16T01:50:38;1.60;;;0.90;;
5225;SDS011;2632;51.666;7.146;2022-10-16T01:53:08;1.33;;;0.90;;
5225;SDS011;2632;51.666;7.146;2022-10-16T01:55:43;1.00;;;0.90;;
5225;SDS011;2632;51.666;7.146;2022-10-16T01:58:12;1.10;;;0.83;;
5225;SDS011;2632;51.666;7.146;2022-10-16T02:00:44;1.70;;;0.80;;
5225;SDS011;2632;51.666;7.146;2022-10-16T02:03:14;1.60;;;0.80;;
5225;SDS011;2632;51.666;7.146;2022-10-16T02:05:47;1.00;;;0.70;;
5225;SDS011;2632;51.666;7.146;2022-10-16T02:08:17;0.97;;;0.87;;
5225;SDS011;2632;51.666;7.146;2022-10-16T02:10:44;3.53;;;0.97;;
5225;SDS011;2632;51.666;7.146;2022-10-16T02:13:12;2.70;;;0.90;;
5225;SDS011;2632;51.666;7.146;2022-10-16T02:15:47;1.93;;;1.00;;
5225;SDS011;2632;51.666;7.146;2022-10-16T02:18:14;1.83;;;1.03;;
5225;SDS011;2632;51.666;7.146;2022-10-16T02:20:48;0.90;;;0.90;;
5225;SDS011;2632;51.666;7.146;2022-10-16T02:23:24;1.07;;;0.80;;
5225;SDS011;2632;51.666;7.146;2022-10-16T02:26:03;1.47;;;0.93;;
5225;SDS011;2632;51.666;7.146;2022-10-16T02:28:52;1.53;;;1.00;;
5225;SDS011;2632;51.666;7.146;2022-10-16T02:31:25;0.70;;;0.67;;
5225;SDS011;2632;51.666;7.146;2022-10-16T02:33:57;2.23;;;1.00;;
5225;SDS011;2632;51.666;7.146;2022-10-16T02:36:25;1.57;;;1.00;;
5225;SDS011;2632;51.666;7.146;2022-10-16T02:38:53;1.07;;;0.90;;
5225;SDS011;2632;51.666;7.146;2022-10-16T02:41:20;1.27;;;0.90;;
5225;SDS011;2632;51.666;7.146;2022-10-16T02:43:48;2.50;;;1.10;;
5225;SDS011;2632;51.666;7.146;2022-10-16T02:46:15;0.93;;;0.87;;
5225;SDS011;2632;51.666;7.146;2022-10-16T02:48:44;1.40;;;0.80;;
5225;SDS011;2632;51.666;7.146;2022-10-16T02:51:10;1.27;;;0.90;;
5225;SDS011;2632;51.666;7.146;2022-10-16T02:53:37;0.90;;;0.80;;
5225;SDS011;2632;51.666;7.146;2022-10-16T02:56:03;1.10;;;0.93;;
5225;SDS011;2632;51.666;7.146;2022-10-16T02:58:30;1.27;;;0.90;;
5225;SDS011;2632;51.666;7.146;2022-10-16T03:00:57;0.80;;;0.80;;
5225;SDS011;2632;51.666;7.146;2022-10-16T03:03:23;1.10;;;0.73;;
5225;SDS011;2632;51.666;7.146;2022-10-16T03:05:50;0.90;;;0.80;;
5225;SDS011;2632;51.666;7.146;2022-10-16T03:08:16;1.37;;;1.00;;
5225;SDS011;2632;51.666;7.146;2022-10-16T03:10:44;1.30;;;0.97;;
5225;SDS011;2632;51.666;7.146;2022-10-16T03:13:11;0.83;;;0.80;;
5225;SDS011;2632;51.666;7.146;2022-10-16T03:15:37;1.10;;;0.87;;
5225;SDS011;2632;51.666;7.146;2022-10-16T03:18:04;1.77;;;0.90;;
5225;SDS011;2632;51.666;7.146;2022-10-16T03:20:31;0.80;;;0.80;;
5225;SDS011;2632;51.666;7.146;2022-10-16T03:22:57;1.00;;;0.90;;
5225;SDS011;2632;51.666;7.146;2022-10-16T03:25:24;0.70;;;0.70;;
5225;SDS011;2632;51.666;7.146;2022-10-16T03:27:51;0.90;;;0.80;;
5225;SDS011;2632;51.666;7.146;2022-10-16T03:30:17;1.17;;;0.90;;
5225;SDS011;2632;51.666;7.146;2022-10-16T03:32:44;1.13;;;0.90;;
5225;SDS011;2632;51.666;7.146;2022-10-16T03:35:11;1.30;;;1.00;;
5225;SDS011;2632;51.666;7.146;2022-10-16T03:37:38;1.53;;;1.00;;
5225;SDS011;2632;51.666;7.146;2022-10-16T03:40:05;1.73;;;0.70;;
5225;SDS011;2632;51.666;7.146;2022-10-16T03:42:32;1.40;;;0.80;;
5225;SDS011;2632;51.666;7.146;2022-10-16T03:44:58;2.20;;;1.37;;
5225;SDS011;2632;51.666;7.146;2022-10-16T03:47:25;1.63;;;0.80;;
5225;SDS011;2632;51.666;7.146;2022-10-16T03:49:52;1.43;;;0.83;;
5225;SDS011;2632;51.666;7.146;2022-10-16T03:52:18;1.50;;;1.00;;
5225;SDS011;2632;51.666;7.146;2022-10-16T03:54:45;0.90;;;0.90;;
5225;SDS011;2632;51.666;7.146;2022-10-16T03:57:12;1.10;;;0.77;;
5225;SDS011;2632;51.666;7.146;2022-10-16T03:59:38;2.23;;;0.83;;
5225;SDS011;2632;51.666;7.146;2022-10-16T04:02:05;1.00;;;0.90;;
5225;SDS011;2632;51.666;7.146;2022-10-16T04:04:31;1.37;;;0.90;;
5225;SDS011;2632;51.666;7.146;2022-10-16T04:06:58;1.20;;;0.90;;
5225;SDS011;2632;51.666;7.146;2022-10-16T04:09:24;1.53;;;0.90;;
5225;SDS011;2632;51.666;7.146;2022-10-16T04:11:53;1.63;;;1.00;;
5225;SDS011;2632;51.666;7.146;2022-10-16T04:14:20;0.83;;;0.83;;
5225;SDS011;2632;51.666;7.146;2022-10-16T04:16:47;0.90;;;0.60;;
5225;SDS011;2632;51.666;7.146;2022-10-16T04:19:13;1.03;;;0.93;;
5225;SDS011;2632;51.666;7.146;2022-10-16T04:21:40;0.90;;;0.80;;
5225;SDS011;2632;51.666;7.146;2022-10-16T04:24:06;1.77;;;1.00;;
5225;SDS011;2632;51.666;7.146;2022-10-16T04:26:33;1.10;;;0.80;;
5225;SDS011;2632;51.666;7.146;2022-10-16T04:28:59;1.57;;;0.90;;
5225;SDS011;2632;51.666;7.146;2022-10-16T04:31:26;1.40;;;1.03;;
5225;SDS011;2632;51.666;7.146;2022-10-16T04:33:53;1.17;;;0.70;;
5225;SDS011;2632;51.666;7.146;2022-10-16T04:36:19;0.73;;;0.73;;
5225;SDS011;2632;51.666;7.146;2022-10-16T04:38:50;2.60;;;0.97;;
5225;SDS011;2632;51.666;7.146;2022-10-16T04:41:17;1.67;;;1.10;;
5225;SDS011;2632;51.666;7.146;2022-10-16T04:43:43;1.53;;;0.80;;
5225;SDS011;2632;51.666;7.146;2022-10-16T04:46:10;2.50;;;1.10;;
5225;SDS011;2632;51.666;7.146;2022-10-16T04:48:36;1.70;;;1.07;;
5225;SDS011;2632;51.666;7.146;2022-10-16T04:51:03;1.50;;;1.20;;
5225;SDS011;2632;51.666;7.146;2022-10-16T04:53:29;1.10;;;1.00;;
5225;SDS011;2632;51.666;7.146;2022-10-16T04:55:56;1.00;;;0.90;;
5225;SDS011;2632;51.666;7.146;2022-10-16T04:58:23;1.77;;;0.83;;
5225;SDS011;2632;51.666;7.146;2022-10-16T05:00:52;0.83;;;0.83;;
5225;SDS011;2632;51.666;7.146;2022-10-16T05:03:19;2.50;;;0.90;;
5225;SDS011;2632;51.666;7.146;2022-10-16T05:05:46;1.13;;;0.83;;
5225;SDS011;2632;51.666;7.146;2022-10-16T05:08:13;4.30;;;1.10;;
5225;SDS011;2632;51.666;7.146;2022-10-16T05:10:41;1.43;;;0.80;;
5225;SDS011;2632;51.666;7.146;2022-10-16T05:13:08;1.43;;;1.13;;
5225;SDS011;2632;51.666;7.146;2022-10-16T05:15:35;2.90;;;1.23;;
5225;SDS011;2632;51.666;7.146;2022-10-16T05:18:02;3.10;;;1.10;;
5225;SDS011;2632;51.666;7.146;2022-10-16T05:20:29;1.77;;;0.80;;
5225;SDS011;2632;51.666;7.146;2022-10-16T05:22:55;1.30;;;0.90;;
5225;SDS011;2632;51.666;7.146;2022-10-16T05:25:22;2.47;;;1.47;;
5225;SDS011;2632;51.666;7.146;2022-10-16T05:27:50;0.97;;;0.90;;
5225;SDS011;2632;51.666;7.146;2022-10-16T05:30:17;13.33;;;1.37;;
5225;SDS011;2632;51.666;7.146;2022-10-16T05:32:46;4.23;;;1.20;;
5225;SDS011;2632;51.666;7.146;2022-10-16T05:35:17;2.97;;;1.10;;
5225;SDS011;2632;51.666;7.146;2022-10-16T05:37:44;1.87;;;0.83;;
5225;SDS011;2632;51.666;7.146;2022-10-16T05:40:11;3.57;;;0.97;;
5225;SDS011;2632;51.666;7.146;2022-10-16T05:42:39;3.60;;;0.90;;
5225;SDS011;2632;51.666;7.146;2022-10-16T05:45:07;0.90;;;0.90;;
5225;SDS011;2632;51.666;7.146;2022-10-16T05:47:35;4.50;;;1.30;;
5225;SDS011;2632;51.666;7.146;2022-10-16T05:50:02;1.63;;;1.00;;
5225;SDS011;2632;51.666;7.146;2022-10-16T05:52:30;3.83;;;0.80;;
5225;SDS011;2632;51.666;7.146;2022-10-16T05:54:56;0.60;;;0.60;;
5225;SDS011;2632;51.666;7.146;2022-10-16T05:57:23;1.20;;;0.80;;
5225;SDS011;2632;51.666;7.146;2022-10-16T05:59:50;0.87;;;0.70;;
5225;SDS011;2632;51.666;7.146;2022-10-16T06:02:17;0.80;;;0.80;;
5225;SDS011;2632;51.666;7.146;2022-10-16T06:04:43;1.00;;;0.90;;
5225;SDS011;2632;51.666;7.146;2022-10-16T06:07:10;1.77;;;0.80;;
5225;SDS011;2632;51.666;7.146;2022-10-16T06:09:36;0.60;;;0.50;;
5225;SDS011;2632;51.666;7.146;2022-10-16T06:12:03;1.63;;;0.80;;
5225;SDS011;2632;51.666;7.146;2022-10-16T06:14:30;1.90;;;0.90;;
5225;SDS011;2632;51.666;7.146;2022-10-16T06:16:56;1.33;;;0.70;;
5225;SDS011;2632;51.666;7.146;2022-10-16T06:19:23;0.70;;;0.60;;
5225;SDS011;2632;51.666;7.146;2022-10-16T06:21:49;0.80;;;0.80;;
5225;SDS011;2632;51.666;7.146;2022-10-16T06:24:16;1.07;;;0.97;;
5225;SDS011;2632;51.666;7.146;2022-10-16T06:26:43;2.20;;;0.80;;
5225;SDS011;2632;51.666;7.146;2022-10-16T06:29:09;2.50;;;0.70;;
5225;SDS011;2632;51.666;7.146;2022-10-16T06:31:36;1.37;;;0.73;;
5225;SDS011;2632;51.666;7.146;2022-10-16T06:34:02;0.70;;;0.70;;
5225;SDS011;2632;51.666;7.146;2022-10-16T06:36:31;0.70;;;0.70;;
5225;SDS011;2632;51.666;7.146;2022-10-16T06:38:58;0.90;;;0.80;;
5225;SDS011;2632;51.666;7.146;2022-10-16T06:41:24;2.10;;;0.80;;
5225;SDS011;2632;51.666;7.146;2022-10-16T06:43:51;0.97;;;0.70;;
5225;SDS011;2632;51.666;7.146;2022-10-16T06:46:19;0.70;;;0.70;;
5225;SDS011;2632;51.666;7.146;2022-10-16T06:48:48;1.73;;;1.10;;
5225;SDS011;2632;51.666;7.146;2022-10-16T06:51:15;2.20;;;1.00;;
5225;SDS011;2632;51.666;7.146;2022-10-16T06:53:47;1.00;;;0.73;;
5225;SDS011;2632;51.666;7.146;2022-10-16T06:56:31;0.97;;;0.80;;
5225;SDS011;2632;51.666;7.146;2022-10-16T06:58:59;0.60;;;0.60;;
5225;SDS011;2632;51.666;7.146;2022-10-16T07:01:27;1.13;;;0.90;;
5225;SDS011;2632;51.666;7.146;2022-10-16T07:03:54;2.57;;;1.20;;
5225;SDS011;2632;51.666;7.146;2022-10-16T07:06:22;2.13;;;0.90;;
5225;SDS011;2632;51.666;7.146;2022-10-16T07:08:50;1.73;;;0.90;;
5225;SDS011;2632;51.666;7.146;2022-10-16T07:11:18;0.70;;;0.70;;
5225;SDS011;2632;51.666;7.146;2022-10-16T07:13:47;0.70;;;0.70;;
5225;SDS011;2632;51.666;7.146;2022-10-16T07:16:20;0.93;;;0.80;;
5225;SDS011;2632;51.666;7.146;2022-10-16T07:18:53;0.70;;;0.70;;
5225;SDS011;2632;51.666;7.146;2022-10-16T07:21:26;2.03;;;0.77;;
5225;SDS011;2632;51.666;7.146;2022-10-16T07:27:05;1.73;;;0.70;;
5225;SDS011;2632;51.666;7.146;2022-10-16T07:29:32;1.20;;;0.70;;
5225;SDS011;2632;51.666;7.146;2022-10-16T07:31:59;0.70;;;0.70;;
5225;SDS011;2632;51.666;7.146;2022-10-16T07:34:25;0.77;;;0.77;;
5225;SDS011;2632;51.666;7.146;2022-10-16T07:36:52;0.80;;;0.80;;
5225;SDS011;2632;51.666;7.146;2022-10-16T07:39:19;0.50;;;0.50;;
5225;SDS011;2632;51.666;7.146;2022-10-16T07:41:45;1.20;;;0.90;;
5225;SDS011;2632;51.666;7.146;2022-10-16T07:44:12;1.17;;;0.80;;
5225;SDS011;2632;51.666;7.146;2022-10-16T07:46:38;0.70;;;0.70;;
5225;SDS011;2632;51.666;7.146;2022-10-16T07:49:05;1.53;;;0.80;;
5225;SDS011;2632;51.666;7.146;2022-10-16T07:51:32;0.83;;;0.83;;
5225;SDS011;2632;51.666;7.146;2022-10-16T07:53:58;1.00;;;0.77;;
5225;SDS011;2632;51.666;7.146;2022-10-16T07:56:25;1.43;;;0.83;;
5225;SDS011;2632;51.666;7.146;2022-10-16T07:58:52;0.73;;;0.73;;
5225;SDS011;2632;51.666;7.146;2022-10-16T08:01:19;1.23;;;0.87;;
5225;SDS011;2632;51.666;7.146;2022-10-16T08:03:46;1.63;;;0.90;;
5225;SDS011;2632;51.666;7.146;2022-10-16T08:06:16;0.80;;;0.80;;
5225;SDS011;2632;51.666;7.146;2022-10-16T08:08:48;0.80;;;0.80;;
5225;SDS011;2632;51.666;7.146;2022-10-16T08:11:15;0.70;;;0.67;;
5225;SDS011;2632;51.666;7.146;2022-10-16T08:13:42;0.70;;;0.70;;
5225;SDS011;2632;51.666;7.146;2022-10-16T08:16:09;1.37;;;0.90;;
5225;SDS011;2632;51.666;7.146;2022-10-16T08:18:37;0.87;;;0.70;;
5225;SDS011;2632;51.666;7.146;2022-10-16T08:21:05;0.80;;;0.77;;
5225;SDS011;2632;51.666;7.146;2022-10-16T08:23:33;1.73;;;1.00;;
5225;SDS011;2632;51.666;7.146;2022-10-16T08:26:04;1.57;;;1.00;;
5225;SDS011;2632;51.666;7.146;2022-10-16T08:28:32;1.03;;;0.90;;
5225;SDS011;2632;51.666;7.146;2022-10-16T08:31:12;1.07;;;0.80;;
5225;SDS011;2632;51.666;7.146;2022-10-16T08:33:41;1.63;;;1.00;;
5225;SDS011;2632;51.666;7.146;2022-10-16T08:36:09;0.80;;;0.80;;
5225;SDS011;2632;51.666;7.146;2022-10-16T08:38:37;2.40;;;1.10;;
5225;SDS011;2632;51.666;7.146;2022-10-16T08:44:05;1.93;;;1.00;;
5225;SDS011;2632;51.666;7.146;2022-10-16T08:49:58;2.30;;;1.10;;
5225;SDS011;2632;51.666;7.146;2022-10-16T08:52:32;1.37;;;0.80;;
5225;SDS011;2632;51.666;7.146;2022-10-16T08:55:01;1.17;;;0.70;;
5225;SDS011;2632;51.666;7.146;2022-10-16T08:57:29;0.83;;;0.83;;
5225;SDS011;2632;51.666;7.146;2022-10-16T09:00:08;1.20;;;0.73;;
5225;SDS011;2632;51.666;7.146;2022-10-16T09:02:41;5.20;;;0.93;;
5225;SDS011;2632;51.666;7.146;2022-10-16T09:05:37;2.30;;;0.90;;
5225;SDS011;2632;51.666;7.146;2022-10-16T09:08:29;0.90;;;0.90;;
5225;SDS011;2632;51.666;7.146;2022-10-16T09:10:58;0.90;;;0.77;;
5225;SDS011;2632;51.666;7.146;2022-10-16T09:18:54;1.40;;;0.87;;
5225;SDS011;2632;51.666;7.146;2022-10-16T09:21:29;2.50;;;1.00;;
5225;SDS011;2632;51.666;7.146;2022-10-16T09:23:59;2.90;;;1.13;;
5225;SDS011;2632;51.666;7.146;2022-10-16T09:26:52;1.10;;;1.10;;
5225;SDS011;2632;51.666;7.146;2022-10-16T09:29:19;1.17;;;0.80;;
5225;SDS011;2632;51.666;7.146;2022-10-16T09:31:49;1.00;;;0.90;;
5225;SDS011;2632;51.666;7.146;2022-10-16T09:37:18;2.10;;;1.00;;
5225;SDS011;2632;51.666;7.146;2022-10-16T09:39:48;1.40;;;0.93;;
5225;SDS011;2632;51.666;7.146;2022-10-16T09:42:17;1.20;;;1.10;;
5225;SDS011;2632;51.666;7.146;2022-10-16T09:44:49;1.63;;;0.90;;
5225;SDS011;2632;51.666;7.146;2022-10-16T09:47:18;2.23;;;1.27;;
5225;SDS011;2632;51.666;7.146;2022-10-16T09:49:54;1.17;;;1.07;;
5225;SDS011;2632;51.666;7.146;2022-10-16T09:52:25;1.80;;;1.70;;
5225;SDS011;2632;51.666;7.146;2022-10-16T09:54:53;1.30;;;1.20;;
5225;SDS011;2632;51.666;7.146;2022-10-16T09:57:20;1.73;;;1.50;;
5225;SDS011;2632;51.666;7.146;2022-10-16T10:00:08;2.87;;;1.13;;
5225;SDS011;2632;51.666;7.146;2022-10-16T10:02:35;2.10;;;1.47;;
5225;SDS011;2632;51.666;7.146;2022-10-16T10:05:04;2.00;;;0.90;;
5225;SDS011;2632;51.666;7.146;2022-10-16T10:07:37;1.37;;;1.03;;
5225;SDS011;2632;51.666;7.146;2022-10-16T10:10:27;1.13;;;1.00;;
5225;SDS011;2632;51.666;7.146;2022-10-16T10:12:55;3.83;;;1.00;;
5225;SDS011;2632;51.666;7.146;2022-10-16T10:15:23;1.17;;;1.07;;
5225;SDS011;2632;51.666;7.146;2022-10-16T10:17:54;2.03;;;1.20;;
5225;SDS011;2632;51.666;7.146;2022-10-16T10:22:49;2.20;;;1.00;;
5225;SDS011;2632;51.666;7.146;2022-10-16T10:25:19;1.70;;;1.43;;
5225;SDS011;2632;51.666;7.146;2022-10-16T10:30:43;1.37;;;1.10;;
5225;SDS011;2632;51.666;7.146;2022-10-16T10:47:00;1.40;;;1.00;;
5225;SDS011;2632;51.666;7.146;2022-10-16T10:52:33;1.83;;;1.13;;
5225;SDS011;2632;51.666;7.146;2022-10-16T10:55:14;1.90;;;1.17;;
5225;SDS011;2632;51.666;7.146;2022-10-16T11:03:30;1.03;;;0.87;;
5225;SDS011;2632;51.666;7.146;2022-10-16T11:06:29;2.40;;;1.03;;
5225;SDS011;2632;51.666;7.146;2022-10-16T11:09:00;1.97;;;1.00;;
5225;SDS011;2632;51.666;7.146;2022-10-16T11:11:43;0.87;;;0.87;;
5225;SDS011;2632;51.666;7.146;2022-10-16T11:14:19;1.40;;;1.00;;
5225;SDS011;2632;51.666;7.146;2022-10-16T11:22:11;1.23;;;1.13;;
5225;SDS011;2632;51.666;7.146;2022-10-16T11:24:47;1.17;;;1.00;;
5225;SDS011;2632;51.666;7.146;2022-10-16T11:27:20;2.57;;;1.23;;
5225;SDS011;2632;51.666;7.146;2022-10-16T11:29:55;0.87;;;0.80;;
5225;SDS011;2632;51.666;7.146;2022-10-16T11:32:27;0.90;;;0.90;;
5225;SDS011;2632;51.666;7.146;2022-10-16T11:34:59;0.70;;;0.63;;
5225;SDS011;2632;51.666;7.146;2022-10-16T11:37:38;1.43;;;0.97;;
5225;SDS011;2632;51.666;7.146;2022-10-16T11:45:58;0.80;;;0.70;;
5225;SDS011;2632;51.666;7.146;2022-10-16T11:52:24;0.73;;;0.70;;
5225;SDS011;2632;51.666;7.146;2022-10-16T11:54:57;0.87;;;0.87;;
5225;SDS011;2632;51.666;7.146;2022-10-16T11:57:32;0.93;;;0.70;;
5225;SDS011;2632;51.666;7.146;2022-10-16T12:02:55;3.03;;;1.20;;
5225;SDS011;2632;51.666;7.146;2022-10-16T12:08:21;2.27;;;1.00;;
5225;SDS011;2632;51.666;7.146;2022-10-16T12:10:48;1.47;;;0.77;;
5225;SDS011;2632;51.666;7.146;2022-10-16T12:13:34;0.67;;;0.67;;
5225;SDS011;2632;51.666;7.146;2022-10-16T12:18:39;1.20;;;0.90;;
5225;SDS011;2632;51.666;7.146;2022-10-16T12:21:07;1.43;;;0.90;;
5225;SDS011;2632;51.666;7.146;2022-10-16T12:23:46;1.17;;;0.80;;
5225;SDS011;2632;51.666;7.146;2022-10-16T12:26:26;0.90;;;0.70;;
5225;SDS011;2632;51.666;7.146;2022-10-16T12:28:55;2.93;;;0.80;;
5225;SDS011;2632;51.666;7.146;2022-10-16T12:31:23;1.27;;;0.93;;
5225;SDS011;2632;51.666;7.146;2022-10-16T12:34:21;1.07;;;0.90;;
5225;SDS011;2632;51.666;7.146;2022-10-16T12:37:22;1.33;;;0.80;;
5225;SDS011;2632;51.666;7.146;2022-10-16T12:39:52;0.93;;;0.80;;
5225;SDS011;2632;51.666;7.146;2022-10-16T12:44:59;2.10;;;1.10;;
5225;SDS011;2632;51.666;7.146;2022-10-16T12:49:59;0.93;;;0.80;;
5225;SDS011;2632;51.666;7.146;2022-10-16T12:55:00;3.33;;;1.00;;
5225;SDS011;2632;51.666;7.146;2022-10-16T13:00:57;1.10;;;1.00;;
5225;SDS011;2632;51.666;7.146;2022-10-16T13:20:35;1.20;;;1.10;;
5225;SDS011;2632;51.666;7.146;2022-10-16T13:29:13;3.70;;;1.27;;
5225;SDS011;2632;51.666;7.146;2022-10-16T13:31:40;1.30;;;1.20;;
5225;SDS011;2632;51.666;7.146;2022-10-16T13:34:17;1.40;;;1.30;;
5225;SDS011;2632;51.666;7.146;2022-10-16T13:36:48;1.10;;;1.00;;
5225;SDS011;2632;51.666;7.146;2022-10-16T13:39:27;1.20;;;1.07;;
5225;SDS011;2632;51.666;7.146;2022-10-16T13:42:05;1.30;;;1.20;;
5225;SDS011;2632;51.666;7.146;2022-10-16T13:44:39;1.53;;;1.20;;
5225;SDS011;2632;51.666;7.146;2022-10-16T13:47:15;1.40;;;1.30;;
5225;SDS011;2632;51.666;7.146;2022-10-16T13:50:00;1.43;;;1.33;;
5225;SDS011;2632;51.666;7.146;2022-10-16T13:52:28;1.47;;;1.13;;
5225;SDS011;2632;51.666;7.146;2022-10-16T13:54:55;1.47;;;1.20;;
5225;SDS011;2632;51.666;7.146;2022-10-16T13:57:27;1.67;;;1.27;;
5225;SDS011;2632;51.666;7.146;2022-10-16T13:59:54;3.90;;;1.30;;
5225;SDS011;2632;51.666;7.146;2022-10-16T14:04:51;1.33;;;1.10;;
5225;SDS011;2632;51.666;7.146;2022-10-16T14:07:23;1.63;;;1.20;;
5225;SDS011;2632;51.666;7.146;2022-10-16T14:09:52;1.93;;;1.43;;
5225;SDS011;2632;51.666;7.146;2022-10-16T14:12:20;1.20;;;1.10;;
5225;SDS011;2632;51.666;7.146;2022-10-16T14:14:53;1.70;;;1.20;;
5225;SDS011;2632;51.666;7.146;2022-10-16T14:17:22;2.33;;;1.00;;
5225;SDS011;2632;51.666;7.146;2022-10-16T14:19:50;1.20;;;1.10;;
5225;SDS011;2632;51.666;7.146;2022-10-16T14:24:57;1.00;;;0.90;;
5225;SDS011;2632;51.666;7.146;2022-10-16T14:27:29;1.07;;;0.97;;
5225;SDS011;2632;51.666;7.146;2022-10-16T14:30:15;2.37;;;1.50;;
5225;SDS011;2632;51.666;7.146;2022-10-16T14:32:56;1.40;;;1.13;;
5225;SDS011;2632;51.666;7.146;2022-10-16T14:37:59;1.47;;;1.10;;
5225;SDS011;2632;51.666;7.146;2022-10-16T14:40:28;3.80;;;1.23;;
5225;SDS011;2632;51.666;7.146;2022-10-16T14:42:57;1.70;;;1.30;;
5225;SDS011;2632;51.666;7.146;2022-10-16T14:45:26;1.17;;;1.07;;
5225;SDS011;2632;51.666;7.146;2022-10-16T14:47:56;3.40;;;1.40;;
5225;SDS011;2632;51.666;7.146;2022-10-16T14:50:25;1.77;;;1.33;;
5225;SDS011;2632;51.666;7.146;2022-10-16T14:52:51;1.60;;;1.10;;
5225;SDS011;2632;51.666;7.146;2022-10-16T14:55:18;2.50;;;1.10;;
5225;SDS011;2632;51.666;7.146;2022-10-16T14:57:45;2.40;;;1.20;;
5225;SDS011;2632;51.666;7.146;2022-10-16T15:00:22;2.63;;;1.10;;
5225;SDS011;2632;51.666;7.146;2022-10-16T15:02:50;1.67;;;1.17;;
5225;SDS011;2632;51.666;7.146;2022-10-16T15:07:51;2.33;;;1.30;;
5225;SDS011;2632;51.666;7.146;2022-10-16T15:10:21;1.67;;;1.43;;
5225;SDS011;2632;51.666;7.146;2022-10-16T15:12:49;2.50;;;1.47;;
5225;SDS011;2632;51.666;7.146;2022-10-16T15:17:55;2.50;;;1.27;;
5225;SDS011;2632;51.666;7.146;2022-10-16T15:20:23;3.10;;;2.10;;
5225;SDS011;2632;51.666;7.146;2022-10-16T15:22:51;2.97;;;1.90;;
5225;SDS011;2632;51.666;7.146;2022-10-16T15:28:03;3.70;;;1.63;;
5225;SDS011;2632;51.666;7.146;2022-10-16T15:30:30;4.20;;;1.63;;
5225;SDS011;2632;51.666;7.146;2022-10-16T15:32:57;3.40;;;1.57;;
5225;SDS011;2632;51.666;7.146;2022-10-16T15:35:24;3.80;;;1.70;;
5225;SDS011;2632;51.666;7.146;2022-10-16T15:37:51;3.33;;;1.73;;
5225;SDS011;2632;51.666;7.146;2022-10-16T15:40:18;3.27;;;1.40;;
5225;SDS011;2632;51.666;7.146;2022-10-16T15:42:45;1.93;;;1.20;;
5225;SDS011;2632;51.666;7.146;2022-10-16T15:45:12;4.23;;;1.43;;
5225;SDS011;2632;51.666;7.146;2022-10-16T15:47:40;1.80;;;1.50;;
5225;SDS011;2632;51.666;7.146;2022-10-16T15:50:11;2.67;;;1.50;;
5225;SDS011;2632;51.666;7.146;2022-10-16T15:52:40;1.90;;;1.50;;
5225;SDS011;2632;51.666;7.146;2022-10-16T15:55:07;1.50;;;1.23;;
5225;SDS011;2632;51.666;7.146;2022-10-16T15:57:35;2.67;;;1.30;;
5225;SDS011;2632;51.666;7.146;2022-10-16T16:00:05;1.20;;;1.07;;
5225;SDS011;2632;51.666;7.146;2022-10-16T16:02:36;1.20;;;1.10;;
5225;SDS011;2632;51.666;7.146;2022-10-16T16:05:03;1.60;;;1.00;;
5225;SDS011;2632;51.666;7.146;2022-10-16T16:07:39;9.57;;;1.53;;
5225;SDS011;2632;51.666;7.146;2022-10-16T16:10:07;2.10;;;1.30;;
5225;SDS011;2632;51.666;7.146;2022-10-16T16:12:36;1.80;;;1.00;;
5225;SDS011;2632;51.666;7.146;2022-10-16T16:15:03;2.20;;;1.33;;
5225;SDS011;2632;51.666;7.146;2022-10-16T16:17:32;6.47;;;1.70;;
5225;SDS011;2632;51.666;7.146;2022-10-16T16:19:59;2.73;;;1.30;;
5225;SDS011;2632;51.666;7.146;2022-10-16T16:22:27;3.60;;;1.37;;
5225;SDS011;2632;51.666;7.146;2022-10-16T16:24:54;1.53;;;1.43;;
5225;SDS011;2632;51.666;7.146;2022-10-16T16:27:20;1.20;;;1.10;;
5225;SDS011;2632;51.666;7.146;2022-10-16T16:29:47;2.70;;;1.70;;
5225;SDS011;2632;51.666;7.146;2022-10-16T16:32:14;1.73;;;1.37;;
5225;SDS011;2632;51.666;7.146;2022-10-16T16:34:40;1.83;;;1.37;;
5225;SDS011;2632;51.666;7.146;2022-10-16T16:37:07;3.53;;;1.83;;
5225;SDS011;2632;51.666;7.146;2022-10-16T16:39:34;3.10;;;1.80;;
5225;SDS011;2632;51.666;7.146;2022-10-16T16:42:00;1.77;;;1.67;;
5225;SDS011;2632;51.666;7.146;2022-10-16T16:44:29;6.27;;;1.83;;
5225;SDS011;2632;51.666;7.146;2022-10-16T16:46:56;3.30;;;1.60;;
5225;SDS011;2632;51.666;7.146;2022-10-16T16:49:23;6.10;;;1.90;;
5225;SDS011;2632;51.666;7.146;2022-10-16T16:51:50;4.40;;;2.37;;
5225;SDS011;2632;51.666;7.146;2022-10-16T16:54:18;4.00;;;2.40;;
5225;SDS011;2632;51.666;7.146;2022-10-16T16:56:45;9.93;;;3.40;;
5225;SDS011;2632;51.666;7.146;2022-10-16T16:59:12;9.67;;;3.90;;
5225;SDS011;2632;51.666;7.146;2022-10-16T17:01:40;17.10;;;5.13;;
5225;SDS011;2632;51.666;7.146;2022-10-16T17:04:07;11.37;;;5.40;;
5225;SDS011;2632;51.666;7.146;2022-10-16T17:06:34;21.73;;;7.00;;
5225;SDS011;2632;51.666;7.146;2022-10-16T17:09:01;24.87;;;8.90;;
5225;SDS011;2632;51.666;7.146;2022-10-16T17:11:28;21.33;;;9.27;;
5225;SDS011;2632;51.666;7.146;2022-10-16T17:13:56;21.03;;;9.13;;
5225;SDS011;2632;51.666;7.146;2022-10-16T17:16:26;22.47;;;8.87;;
5225;SDS011;2632;51.666;7.146;2022-10-16T17:18:55;18.60;;;8.90;;
5225;SDS011;2632;51.666;7.146;2022-10-16T17:21:25;19.17;;;8.50;;
5225;SDS011;2632;51.666;7.146;2022-10-16T17:23:53;18.73;;;7.70;;
5225;SDS011;2632;51.666;7.146;2022-10-16T17:26:19;19.37;;;7.53;;
5225;SDS011;2632;51.666;7.146;2022-10-16T17:28:49;16.33;;;7.70;;
5225;SDS011;2632;51.666;7.146;2022-10-16T17:31:19;11.43;;;5.37;;
5225;SDS011;2632;51.666;7.146;2022-10-16T17:33:48;17.03;;;6.97;;
5225;SDS011;2632;51.666;7.146;2022-10-16T17:36:17;18.57;;;7.53;;